sensor_id;sensor_type;location;lat;lon;timestamp;P1;durP1;ratioP1;P2;durP2;ratioP2
51326;SDS011;37412;52.836;6.362;2023-05-19T07:56:03;7.32;;;2.67;;
51326;SDS011;37412;52.836;6.362;2023-05-19T07:58:52;10.35;;;2.70;;
51326;SDS011;37412;52.836;6.362;2023-05-19T08:01:38;5.60;;;2.42;;
51326;SDS011;37412;52.836;6.362;2023-05-19T08:04:24;6.45;;;2.55;;
51326;SDS011;37412;52.836;6.362;2023-05-19T08:07:10;6.78;;;3.00;;
51326;SDS011;37412;52.836;6.362;2023-05-19T08:09:56;8.15;;;2.60;;
51326;SDS011;37412;52.836;6.362;2023-05-19T08:12:42;5.53;;;2.70;;
51326;SDS011;37412;52.836;6.362;2023-05-19T08:15:28;5.85;;;2.70;;
51326;SDS011;37412;52.836;6.362;2023-05-19T08:18:14;6.18;;;2.97;;
51326;SDS011;37412;52.836;6.362;2023-05-19T08:21:00;8.18;;;3.10;;
51326;SDS011;37412;52.836;6.362;2023-05-19T08:23:46;4.87;;;2.77;;
51326;SDS011;37412;52.836;6.362;2023-05-19T08:26:32;6.20;;;2.58;;
51326;SDS011;37412;52.836;6.362;2023-05-19T08:29:18;7.15;;;2.72;;
51326;SDS011;37412;52.836;6.362;2023-05-19T08:32:08;4.88;;;2.58;;
51326;SDS011;37412;52.836;6.362;2023-05-19T08:34:54;5.20;;;2.42;;
51326;SDS011;37412;52.836;6.362;2023-05-19T08:37:40;6.78;;;2.67;;
51326;SDS011;37412;52.836;6.362;2023-05-19T08:40:28;6.50;;;2.80;;
51326;SDS011;37412;52.836;6.362;2023-05-19T08:43:15;5.82;;;2.38;;
51326;SDS011;37412;52.836;6.362;2023-05-19T08:46:01;7.05;;;2.65;;
51326;SDS011;37412;52.836;6.362;2023-05-19T08:48:48;4.93;;;2.40;;
51326;SDS011;37412;52.836;6.362;2023-05-19T08:54:36;6.75;;;2.60;;
51326;SDS011;37412;52.836;6.362;2023-05-19T08:57:28;6.60;;;2.38;;
51326;SDS011;37412;52.836;6.362;2023-05-19T09:00:14;7.00;;;2.40;;
51326;SDS011;37412;52.836;6.362;2023-05-19T09:03:04;5.97;;;2.47;;
51326;SDS011;37412;52.836;6.362;2023-05-19T09:05:54;5.47;;;2.40;;
51326;SDS011;37412;52.836;6.362;2023-05-19T09:08:40;4.90;;;2.30;;
51326;SDS011;37412;52.836;6.362;2023-05-19T09:11:27;6.13;;;2.28;;
51326;SDS011;37412;52.836;6.362;2023-05-19T09:14:13;4.87;;;2.27;;
51326;SDS011;37412;52.836;6.362;2023-05-19T09:16:59;5.97;;;2.20;;
51326;SDS011;37412;52.836;6.362;2023-05-19T09:19:45;5.75;;;2.28;;
51326;SDS011;37412;52.836;6.362;2023-05-19T09:22:39;4.97;;;2.25;;
51326;SDS011;37412;52.836;6.362;2023-05-19T09:25:26;5.15;;;2.40;;
51326;SDS011;37412;52.836;6.362;2023-05-19T09:28:12;6.30;;;2.33;;
51326;SDS011;37412;52.836;6.362;2023-05-19T09:30:58;6.53;;;2.42;;
51326;SDS011;37412;52.836;6.362;2023-05-19T09:33:45;4.55;;;2.00;;
51326;SDS011;37412;52.836;6.362;2023-05-19T09:36:31;6.20;;;2.20;;
51326;SDS011;37412;52.836;6.362;2023-05-19T09:39:23;4.68;;;2.17;;
51326;SDS011;37412;52.836;6.362;2023-05-19T09:42:10;6.78;;;2.67;;
51326;SDS011;37412;52.836;6.362;2023-05-19T09:45:00;5.15;;;2.25;;
51326;SDS011;37412;52.836;6.362;2023-05-19T09:47:47;6.45;;;2.20;;
51326;SDS011;37412;52.836;6.362;2023-05-19T09:50:33;5.55;;;2.10;;
51326;SDS011;37412;52.836;6.362;2023-05-19T09:53:20;3.72;;;2.13;;
51326;SDS011;37412;52.836;6.362;2023-05-19T09:56:06;4.07;;;2.00;;
51326;SDS011;37412;52.836;6.362;2023-05-19T09:58:54;4.35;;;2.20;;
51326;SDS011;37412;52.836;6.362;2023-05-19T10:01:40;4.28;;;1.95;;
51326;SDS011;37412;52.836;6.362;2023-05-19T10:04:32;5.90;;;2.10;;
51326;SDS011;37412;52.836;6.362;2023-05-19T10:07:18;5.50;;;2.10;;
51326;SDS011;37412;52.836;6.362;2023-05-19T10:10:10;5.37;;;2.13;;
51326;SDS011;37412;52.836;6.362;2023-05-19T10:12:58;5.95;;;2.30;;
51326;SDS011;37412;52.836;6.362;2023-05-19T10:15:45;5.82;;;2.38;;
51326;SDS011;37412;52.836;6.362;2023-05-19T10:18:32;5.05;;;2.00;;
51326;SDS011;37412;52.836;6.362;2023-05-19T10:21:19;5.90;;;2.22;;
51326;SDS011;37412;52.836;6.362;2023-05-19T10:24:05;5.60;;;2.00;;
51326;SDS011;37412;52.836;6.362;2023-05-19T10:26:54;4.97;;;2.13;;
51326;SDS011;37412;52.836;6.362;2023-05-19T10:29:47;4.95;;;1.95;;
51326;SDS011;37412;52.836;6.362;2023-05-19T10:32:35;4.78;;;1.95;;
51326;SDS011;37412;52.836;6.362;2023-05-19T10:38:33;5.43;;;2.22;;
51326;SDS011;37412;52.836;6.362;2023-05-19T10:41:52;5.20;;;2.20;;
51326;SDS011;37412;52.836;6.362;2023-05-19T10:44:45;3.90;;;2.03;;
51326;SDS011;37412;52.836;6.362;2023-05-19T10:47:51;5.35;;;1.90;;
51326;SDS011;37412;52.836;6.362;2023-05-19T10:50:38;4.03;;;1.83;;
51326;SDS011;37412;52.836;6.362;2023-05-19T10:53:29;4.95;;;2.00;;
51326;SDS011;37412;52.836;6.362;2023-05-19T10:56:26;5.95;;;2.08;;
51326;SDS011;37412;52.836;6.362;2023-05-19T10:59:29;4.38;;;1.88;;
51326;SDS011;37412;52.836;6.362;2023-05-19T11:02:35;6.18;;;1.98;;
51326;SDS011;37412;52.836;6.362;2023-05-19T11:05:31;5.20;;;2.17;;
51326;SDS011;37412;52.836;6.362;2023-05-19T11:08:30;5.03;;;2.05;;
51326;SDS011;37412;52.836;6.362;2023-05-19T11:11:17;5.00;;;1.90;;
51326;SDS011;37412;52.836;6.362;2023-05-19T11:14:03;4.97;;;2.10;;
51326;SDS011;37412;52.836;6.362;2023-05-19T11:16:50;5.17;;;1.77;;
51326;SDS011;37412;52.836;6.362;2023-05-19T11:19:37;4.00;;;1.87;;
51326;SDS011;37412;52.836;6.362;2023-05-19T11:22:26;4.35;;;2.05;;
51326;SDS011;37412;52.836;6.362;2023-05-19T11:25:12;5.50;;;1.90;;
51326;SDS011;37412;52.836;6.362;2023-05-19T11:28:22;5.50;;;2.00;;
51326;SDS011;37412;52.836;6.362;2023-05-19T11:31:10;6.55;;;2.20;;
51326;SDS011;37412;52.836;6.362;2023-05-19T11:33:56;4.30;;;2.00;;
51326;SDS011;37412;52.836;6.362;2023-05-19T11:36:42;5.65;;;1.92;;
51326;SDS011;37412;52.836;6.362;2023-05-19T11:39:30;4.50;;;2.00;;
51326;SDS011;37412;52.836;6.362;2023-05-19T11:42:16;4.72;;;1.90;;
51326;SDS011;37412;52.836;6.362;2023-05-19T11:45:03;4.50;;;1.83;;
51326;SDS011;37412;52.836;6.362;2023-05-19T11:47:49;4.50;;;1.90;;
51326;SDS011;37412;52.836;6.362;2023-05-19T11:50:35;5.00;;;1.90;;
51326;SDS011;37412;52.836;6.362;2023-05-19T11:53:22;4.40;;;1.88;;
51326;SDS011;37412;52.836;6.362;2023-05-19T11:56:08;4.80;;;2.00;;
51326;SDS011;37412;52.836;6.362;2023-05-19T11:58:56;4.82;;;1.88;;
51326;SDS011;37412;52.836;6.362;2023-05-19T12:01:42;5.60;;;2.00;;
51326;SDS011;37412;52.836;6.362;2023-05-19T12:04:31;6.03;;;1.90;;
51326;SDS011;37412;52.836;6.362;2023-05-19T12:10:09;4.15;;;1.83;;
51326;SDS011;37412;52.836;6.362;2023-05-19T12:12:56;2.70;;;1.67;;
51326;SDS011;37412;52.836;6.362;2023-05-19T12:15:42;5.95;;;2.20;;
51326;SDS011;37412;52.836;6.362;2023-05-19T12:18:28;5.60;;;1.98;;
51326;SDS011;37412;52.836;6.362;2023-05-19T12:21:16;7.88;;;2.03;;
51326;SDS011;37412;52.836;6.362;2023-05-19T12:24:02;3.47;;;1.80;;
51326;SDS011;37412;52.836;6.362;2023-05-19T12:26:49;7.30;;;1.95;;
51326;SDS011;37412;52.836;6.362;2023-05-19T12:29:35;5.68;;;2.03;;
51326;SDS011;37412;52.836;6.362;2023-05-19T12:32:23;4.25;;;1.80;;
51326;SDS011;37412;52.836;6.362;2023-05-19T12:35:10;5.28;;;1.98;;
51326;SDS011;37412;52.836;6.362;2023-05-19T12:37:56;4.57;;;1.55;;
51326;SDS011;37412;52.836;6.362;2023-05-19T12:40:54;6.07;;;2.15;;
51326;SDS011;37412;52.836;6.362;2023-05-19T12:43:47;5.75;;;1.73;;
51326;SDS011;37412;52.836;6.362;2023-05-19T12:46:33;5.43;;;2.03;;
51326;SDS011;37412;52.836;6.362;2023-05-19T12:49:19;3.40;;;1.73;;
51326;SDS011;37412;52.836;6.362;2023-05-19T12:52:05;3.67;;;1.60;;
51326;SDS011;37412;52.836;6.362;2023-05-19T12:54:58;4.13;;;1.52;;
51326;SDS011;37412;52.836;6.362;2023-05-19T12:57:49;6.35;;;1.90;;
51326;SDS011;37412;52.836;6.362;2023-05-19T13:00:40;9.63;;;2.10;;
51326;SDS011;37412;52.836;6.362;2023-05-19T13:03:29;4.05;;;1.92;;
51326;SDS011;37412;52.836;6.362;2023-05-19T13:06:15;4.93;;;1.60;;
51326;SDS011;37412;52.836;6.362;2023-05-19T13:09:01;5.18;;;1.90;;
51326;SDS011;37412;52.836;6.362;2023-05-19T13:11:51;5.50;;;1.77;;
51326;SDS011;37412;52.836;6.362;2023-05-19T13:14:38;4.85;;;1.80;;
51326;SDS011;37412;52.836;6.362;2023-05-19T13:17:26;5.90;;;2.67;;
51326;SDS011;37412;52.836;6.362;2023-05-19T13:20:12;4.82;;;1.67;;
51326;SDS011;37412;52.836;6.362;2023-05-19T13:22:58;5.32;;;1.42;;
51326;SDS011;37412;52.836;6.362;2023-05-19T13:25:45;5.60;;;1.92;;
51326;SDS011;37412;52.836;6.362;2023-05-19T13:28:34;4.35;;;1.80;;
51326;SDS011;37412;52.836;6.362;2023-05-19T13:31:20;4.13;;;1.80;;
51326;SDS011;37412;52.836;6.362;2023-05-19T13:34:08;4.63;;;2.00;;
51326;SDS011;37412;52.836;6.362;2023-05-19T13:36:54;3.10;;;1.80;;
51326;SDS011;37412;52.836;6.362;2023-05-19T13:39:41;5.80;;;1.88;;
51326;SDS011;37412;52.836;6.362;2023-05-19T13:42:30;3.50;;;1.40;;
51326;SDS011;37412;52.836;6.362;2023-05-19T13:45:17;3.92;;;1.52;;
51326;SDS011;37412;52.836;6.362;2023-05-19T13:48:03;4.35;;;1.80;;
51326;SDS011;37412;52.836;6.362;2023-05-19T13:50:51;5.45;;;1.80;;
51326;SDS011;37412;52.836;6.362;2023-05-19T13:53:39;4.78;;;2.00;;
51326;SDS011;37412;52.836;6.362;2023-05-19T13:56:28;5.30;;;1.95;;
51326;SDS011;37412;52.836;6.362;2023-05-19T13:59:15;6.75;;;2.10;;
51326;SDS011;37412;52.836;6.362;2023-05-19T14:02:02;5.60;;;2.10;;
51326;SDS011;37412;52.836;6.362;2023-05-19T14:04:49;4.32;;;1.80;;
51326;SDS011;37412;52.836;6.362;2023-05-19T14:07:35;5.85;;;1.80;;
51326;SDS011;37412;52.836;6.362;2023-05-19T14:10:21;4.15;;;1.73;;
51326;SDS011;37412;52.836;6.362;2023-05-19T14:13:10;7.72;;;1.80;;
51326;SDS011;37412;52.836;6.362;2023-05-19T14:15:57;3.03;;;1.60;;
51326;SDS011;37412;52.836;6.362;2023-05-19T14:18:43;6.05;;;1.80;;
51326;SDS011;37412;52.836;6.362;2023-05-19T14:21:29;4.15;;;1.77;;
51326;SDS011;37412;52.836;6.362;2023-05-19T14:24:15;4.45;;;1.65;;
51326;SDS011;37412;52.836;6.362;2023-05-19T14:27:01;4.30;;;1.65;;
51326;SDS011;37412;52.836;6.362;2023-05-19T14:29:47;4.67;;;1.50;;
51326;SDS011;37412;52.836;6.362;2023-05-19T14:32:33;4.78;;;2.03;;
51326;SDS011;37412;52.836;6.362;2023-05-19T14:35:20;3.13;;;1.63;;
51326;SDS011;37412;52.836;6.362;2023-05-19T14:38:06;4.07;;;1.90;;
51326;SDS011;37412;52.836;6.362;2023-05-19T14:40:52;4.18;;;1.80;;
51326;SDS011;37412;52.836;6.362;2023-05-19T14:43:38;3.50;;;1.77;;
51326;SDS011;37412;52.836;6.362;2023-05-19T14:46:26;5.17;;;2.07;;
51326;SDS011;37412;52.836;6.362;2023-05-19T14:49:12;5.22;;;1.98;;
51326;SDS011;37412;52.836;6.362;2023-05-19T14:51:58;4.40;;;1.80;;
51326;SDS011;37412;52.836;6.362;2023-05-19T14:54:44;3.03;;;1.80;;
51326;SDS011;37412;52.836;6.362;2023-05-19T14:57:30;3.35;;;1.77;;
51326;SDS011;37412;52.836;6.362;2023-05-19T15:00:16;4.18;;;1.88;;
51326;SDS011;37412;52.836;6.362;2023-05-19T15:03:02;6.78;;;2.03;;
51326;SDS011;37412;52.836;6.362;2023-05-19T15:05:48;4.18;;;1.98;;
51326;SDS011;37412;52.836;6.362;2023-05-19T15:08:35;4.22;;;1.83;;
51326;SDS011;37412;52.836;6.362;2023-05-19T15:11:22;4.60;;;1.88;;
51326;SDS011;37412;52.836;6.362;2023-05-19T15:14:07;6.03;;;2.10;;
51326;SDS011;37412;52.836;6.362;2023-05-19T15:16:53;4.80;;;2.10;;
51326;SDS011;37412;52.836;6.362;2023-05-19T15:19:39;4.82;;;2.20;;
51326;SDS011;37412;52.836;6.362;2023-05-19T15:22:27;4.28;;;2.10;;
51326;SDS011;37412;52.836;6.362;2023-05-19T15:25:13;5.05;;;2.03;;
51326;SDS011;37412;52.836;6.362;2023-05-19T15:27:58;5.15;;;2.28;;
51326;SDS011;37412;52.836;6.362;2023-05-19T15:30:44;4.35;;;2.10;;
51326;SDS011;37412;52.836;6.362;2023-05-19T15:33:30;4.70;;;2.15;;
51326;SDS011;37412;52.836;6.362;2023-05-19T15:36:16;4.22;;;2.10;;
51326;SDS011;37412;52.836;6.362;2023-05-19T15:39:02;4.35;;;1.88;;
51326;SDS011;37412;52.836;6.362;2023-05-19T15:41:49;5.15;;;2.13;;
51326;SDS011;37412;52.836;6.362;2023-05-19T15:44:35;8.77;;;2.42;;
51326;SDS011;37412;52.836;6.362;2023-05-19T15:47:21;4.97;;;2.03;;
51326;SDS011;37412;52.836;6.362;2023-05-19T15:50:07;4.93;;;2.20;;
51326;SDS011;37412;52.836;6.362;2023-05-19T15:52:54;4.75;;;2.20;;
51326;SDS011;37412;52.836;6.362;2023-05-19T15:55:39;3.73;;;2.23;;
51326;SDS011;37412;52.836;6.362;2023-05-19T15:58:25;3.95;;;2.10;;
51326;SDS011;37412;52.836;6.362;2023-05-19T16:01:11;4.03;;;2.17;;
51326;SDS011;37412;52.836;6.362;2023-05-19T16:03:59;4.72;;;2.38;;
51326;SDS011;37412;52.836;6.362;2023-05-19T16:06:47;5.20;;;2.10;;
51326;SDS011;37412;52.836;6.362;2023-05-19T16:09:33;4.50;;;2.13;;
51326;SDS011;37412;52.836;6.362;2023-05-19T16:12:19;3.45;;;2.10;;
51326;SDS011;37412;52.836;6.362;2023-05-19T16:15:05;3.50;;;2.10;;
51326;SDS011;37412;52.836;6.362;2023-05-19T16:17:51;4.22;;;2.20;;
51326;SDS011;37412;52.836;6.362;2023-05-19T16:20:39;4.35;;;2.25;;
51326;SDS011;37412;52.836;6.362;2023-05-19T16:23:26;4.25;;;2.10;;
51326;SDS011;37412;52.836;6.362;2023-05-19T16:26:12;4.75;;;2.45;;
51326;SDS011;37412;52.836;6.362;2023-05-19T16:28:58;4.50;;;2.10;;
51326;SDS011;37412;52.836;6.362;2023-05-19T16:31:44;3.57;;;2.00;;
51326;SDS011;37412;52.836;6.362;2023-05-19T16:34:30;3.65;;;2.05;;
51326;SDS011;37412;52.836;6.362;2023-05-19T16:37:16;6.15;;;2.30;;
51326;SDS011;37412;52.836;6.362;2023-05-19T16:40:02;3.20;;;2.10;;
51326;SDS011;37412;52.836;6.362;2023-05-19T16:42:48;4.18;;;2.00;;
51326;SDS011;37412;52.836;6.362;2023-05-19T16:45:39;3.88;;;1.90;;
51326;SDS011;37412;52.836;6.362;2023-05-19T16:48:25;4.50;;;1.85;;
51326;SDS011;37412;52.836;6.362;2023-05-19T16:51:11;3.33;;;1.90;;
51326;SDS011;37412;52.836;6.362;2023-05-19T16:53:57;4.22;;;1.80;;
51326;SDS011;37412;52.836;6.362;2023-05-19T16:56:43;3.95;;;1.67;;
51326;SDS011;37412;52.836;6.362;2023-05-19T16:59:32;3.92;;;1.90;;
51326;SDS011;37412;52.836;6.362;2023-05-19T17:02:19;4.33;;;1.80;;
51326;SDS011;37412;52.836;6.362;2023-05-19T17:05:05;3.75;;;2.00;;
51326;SDS011;37412;52.836;6.362;2023-05-19T17:07:51;4.03;;;2.10;;
51326;SDS011;37412;52.836;6.362;2023-05-19T17:10:37;3.90;;;1.90;;
51326;SDS011;37412;52.836;6.362;2023-05-19T17:13:23;4.57;;;1.80;;
51326;SDS011;37412;52.836;6.362;2023-05-19T17:16:09;6.10;;;2.00;;
51326;SDS011;37412;52.836;6.362;2023-05-19T17:18:56;4.00;;;1.90;;
51326;SDS011;37412;52.836;6.362;2023-05-19T17:21:41;4.33;;;1.80;;
51326;SDS011;37412;52.836;6.362;2023-05-19T17:24:28;4.15;;;1.98;;
51326;SDS011;37412;52.836;6.362;2023-05-19T17:27:17;3.92;;;1.92;;
51326;SDS011;37412;52.836;6.362;2023-05-19T17:30:03;4.75;;;2.00;;
51326;SDS011;37412;52.836;6.362;2023-05-19T17:32:49;3.33;;;1.90;;
51326;SDS011;37412;52.836;6.362;2023-05-19T17:35:35;5.50;;;1.90;;
51326;SDS011;37412;52.836;6.362;2023-05-19T17:38:21;4.07;;;2.10;;
51326;SDS011;37412;52.836;6.362;2023-05-19T17:41:07;4.00;;;1.70;;
51326;SDS011;37412;52.836;6.362;2023-05-19T17:43:58;3.70;;;1.90;;
51326;SDS011;37412;52.836;6.362;2023-05-19T17:46:44;3.97;;;1.88;;
51326;SDS011;37412;52.836;6.362;2023-05-19T17:49:30;3.72;;;1.90;;
51326;SDS011;37412;52.836;6.362;2023-05-19T17:52:16;4.60;;;1.83;;
51326;SDS011;37412;52.836;6.362;2023-05-19T17:55:03;3.60;;;1.70;;
51326;SDS011;37412;52.836;6.362;2023-05-19T17:57:50;5.22;;;1.98;;
51326;SDS011;37412;52.836;6.362;2023-05-19T18:00:36;3.03;;;1.88;;
51326;SDS011;37412;52.836;6.362;2023-05-19T18:03:22;3.67;;;1.90;;
51326;SDS011;37412;52.836;6.362;2023-05-19T18:06:08;4.53;;;1.88;;
51326;SDS011;37412;52.836;6.362;2023-05-19T18:08:56;4.18;;;1.80;;
51326;SDS011;37412;52.836;6.362;2023-05-19T18:11:43;5.87;;;2.10;;
51326;SDS011;37412;52.836;6.362;2023-05-19T18:14:29;4.07;;;1.92;;
51326;SDS011;37412;52.836;6.362;2023-05-19T18:17:15;5.15;;;2.33;;
51326;SDS011;37412;52.836;6.362;2023-05-19T18:20:01;6.35;;;2.15;;
51326;SDS011;37412;52.836;6.362;2023-05-19T18:22:47;6.95;;;2.42;;
51326;SDS011;37412;52.836;6.362;2023-05-19T18:25:34;6.75;;;2.63;;
51326;SDS011;37412;52.836;6.362;2023-05-19T18:28:20;7.63;;;2.40;;
51326;SDS011;37412;52.836;6.362;2023-05-19T18:31:07;5.35;;;2.70;;
51326;SDS011;37412;52.836;6.362;2023-05-19T18:33:53;7.63;;;2.47;;
51326;SDS011;37412;52.836;6.362;2023-05-19T18:36:39;5.70;;;2.30;;
51326;SDS011;37412;52.836;6.362;2023-05-19T18:39:25;6.28;;;2.53;;
51326;SDS011;37412;52.836;6.362;2023-05-19T18:42:11;5.85;;;2.40;;
51326;SDS011;37412;52.836;6.362;2023-05-19T18:44:57;7.37;;;2.70;;
51326;SDS011;37412;52.836;6.362;2023-05-19T18:47:43;6.40;;;2.60;;
51326;SDS011;37412;52.836;6.362;2023-05-19T18:50:29;4.72;;;2.35;;
51326;SDS011;37412;52.836;6.362;2023-05-19T18:53:15;6.15;;;2.33;;
51326;SDS011;37412;52.836;6.362;2023-05-19T18:56:02;6.23;;;2.67;;
51326;SDS011;37412;52.836;6.362;2023-05-19T18:58:48;5.95;;;2.47;;
51326;SDS011;37412;52.836;6.362;2023-05-19T19:01:34;7.77;;;2.57;;
51326;SDS011;37412;52.836;6.362;2023-05-19T19:04:20;5.25;;;2.40;;
51326;SDS011;37412;52.836;6.362;2023-05-19T19:07:06;6.37;;;2.23;;
51326;SDS011;37412;52.836;6.362;2023-05-19T19:09:52;6.28;;;2.53;;
51326;SDS011;37412;52.836;6.362;2023-05-19T19:12:38;7.30;;;2.55;;
51326;SDS011;37412;52.836;6.362;2023-05-19T19:15:24;6.03;;;2.45;;
51326;SDS011;37412;52.836;6.362;2023-05-19T19:18:12;5.90;;;2.40;;
51326;SDS011;37412;52.836;6.362;2023-05-19T19:20:58;6.68;;;2.60;;
51326;SDS011;37412;52.836;6.362;2023-05-19T19:23:46;6.25;;;2.50;;
51326;SDS011;37412;52.836;6.362;2023-05-19T19:26:32;5.40;;;2.35;;
51326;SDS011;37412;52.836;6.362;2023-05-19T19:29:18;6.05;;;2.67;;
51326;SDS011;37412;52.836;6.362;2023-05-19T19:32:06;5.45;;;2.33;;
51326;SDS011;37412;52.836;6.362;2023-05-19T19:34:52;5.32;;;2.35;;
51326;SDS011;37412;52.836;6.362;2023-05-19T19:37:37;5.50;;;2.50;;
51326;SDS011;37412;52.836;6.362;2023-05-19T19:40:23;5.75;;;2.58;;
51326;SDS011;37412;52.836;6.362;2023-05-19T19:43:12;6.97;;;2.40;;
51326;SDS011;37412;52.836;6.362;2023-05-19T19:46:02;8.07;;;2.55;;
51326;SDS011;37412;52.836;6.362;2023-05-19T19:48:51;6.15;;;2.40;;
51326;SDS011;37412;52.836;6.362;2023-05-19T19:51:40;6.00;;;2.63;;
51326;SDS011;37412;52.836;6.362;2023-05-19T19:54:26;6.50;;;2.30;;
51326;SDS011;37412;52.836;6.362;2023-05-19T19:57:12;6.30;;;2.20;;
51326;SDS011;37412;52.836;6.362;2023-05-19T20:00:01;6.38;;;2.30;;
51326;SDS011;37412;52.836;6.362;2023-05-19T20:02:52;4.78;;;2.40;;
51326;SDS011;37412;52.836;6.362;2023-05-19T20:05:38;5.97;;;2.40;;
51326;SDS011;37412;52.836;6.362;2023-05-19T20:08:24;6.38;;;2.30;;
51326;SDS011;37412;52.836;6.362;2023-05-19T20:11:11;5.68;;;2.47;;
51326;SDS011;37412;52.836;6.362;2023-05-19T20:13:57;5.25;;;2.30;;
51326;SDS011;37412;52.836;6.362;2023-05-19T20:16:46;5.63;;;2.78;;
51326;SDS011;37412;52.836;6.362;2023-05-19T20:19:32;8.10;;;2.75;;
51326;SDS011;37412;52.836;6.362;2023-05-19T20:22:18;4.65;;;2.75;;
51326;SDS011;37412;52.836;6.362;2023-05-19T20:25:04;5.68;;;2.50;;
51326;SDS011;37412;52.836;6.362;2023-05-19T20:27:50;5.78;;;2.65;;
51326;SDS011;37412;52.836;6.362;2023-05-19T20:30:36;7.57;;;2.60;;
51326;SDS011;37412;52.836;6.362;2023-05-19T20:33:22;4.95;;;2.72;;
51326;SDS011;37412;52.836;6.362;2023-05-19T20:36:08;5.63;;;2.70;;
51326;SDS011;37412;52.836;6.362;2023-05-19T20:38:58;6.68;;;2.80;;
51326;SDS011;37412;52.836;6.362;2023-05-19T20:41:44;6.15;;;2.60;;
51326;SDS011;37412;52.836;6.362;2023-05-19T20:44:30;5.45;;;2.50;;
51326;SDS011;37412;52.836;6.362;2023-05-19T20:47:15;6.82;;;2.70;;
51326;SDS011;37412;52.836;6.362;2023-05-19T20:50:03;6.07;;;2.97;;
51326;SDS011;37412;52.836;6.362;2023-05-19T20:52:50;4.90;;;2.70;;
51326;SDS011;37412;52.836;6.362;2023-05-19T20:55:37;5.70;;;2.60;;
51326;SDS011;37412;52.836;6.362;2023-05-19T20:58:23;4.47;;;2.63;;
51326;SDS011;37412;52.836;6.362;2023-05-19T21:01:10;6.43;;;2.80;;
51326;SDS011;37412;52.836;6.362;2023-05-19T21:03:56;5.40;;;2.83;;
51326;SDS011;37412;52.836;6.362;2023-05-19T21:06:42;6.17;;;3.00;;
51326;SDS011;37412;52.836;6.362;2023-05-19T21:09:28;4.88;;;2.75;;
51326;SDS011;37412;52.836;6.362;2023-05-19T21:12:14;5.30;;;3.00;;
51326;SDS011;37412;52.836;6.362;2023-05-19T21:15:01;5.20;;;2.80;;
51326;SDS011;37412;52.836;6.362;2023-05-19T21:17:47;7.38;;;3.10;;
51326;SDS011;37412;52.836;6.362;2023-05-19T21:20:38;7.20;;;3.08;;
51326;SDS011;37412;52.836;6.362;2023-05-19T21:23:24;6.50;;;3.17;;
51326;SDS011;37412;52.836;6.362;2023-05-19T21:26:10;6.43;;;2.75;;
51326;SDS011;37412;52.836;6.362;2023-05-19T21:28:56;6.95;;;3.17;;
51326;SDS011;37412;52.836;6.362;2023-05-19T21:31:41;5.82;;;3.30;;
51326;SDS011;37412;52.836;6.362;2023-05-19T21:34:27;4.95;;;3.05;;
51326;SDS011;37412;52.836;6.362;2023-05-19T21:37:13;7.90;;;3.40;;
51326;SDS011;37412;52.836;6.362;2023-05-19T21:40:01;6.32;;;3.30;;
51326;SDS011;37412;52.836;6.362;2023-05-19T21:42:47;5.97;;;3.15;;
51326;SDS011;37412;52.836;6.362;2023-05-19T21:45:33;5.97;;;3.33;;
51326;SDS011;37412;52.836;6.362;2023-05-19T21:48:19;7.43;;;3.50;;
51326;SDS011;37412;52.836;6.362;2023-05-19T21:51:05;7.22;;;3.50;;
51326;SDS011;37412;52.836;6.362;2023-05-19T21:53:51;5.60;;;3.20;;
51326;SDS011;37412;52.836;6.362;2023-05-19T21:56:37;7.65;;;3.42;;
51326;SDS011;37412;52.836;6.362;2023-05-19T21:59:23;7.35;;;3.42;;
51326;SDS011;37412;52.836;6.362;2023-05-19T22:02:10;9.60;;;4.28;;
51326;SDS011;37412;52.836;6.362;2023-05-19T22:04:56;6.95;;;3.53;;
51326;SDS011;37412;52.836;6.362;2023-05-19T22:07:42;7.75;;;3.67;;
51326;SDS011;37412;52.836;6.362;2023-05-19T22:10:28;8.65;;;3.92;;
51326;SDS011;37412;52.836;6.362;2023-05-19T22:13:14;7.68;;;3.85;;
51326;SDS011;37412;52.836;6.362;2023-05-19T22:16:00;6.40;;;3.65;;
51326;SDS011;37412;52.836;6.362;2023-05-19T22:18:48;7.18;;;3.72;;
51326;SDS011;37412;52.836;6.362;2023-05-19T22:21:34;7.30;;;3.92;;
51326;SDS011;37412;52.836;6.362;2023-05-19T22:24:20;6.33;;;3.40;;
51326;SDS011;37412;52.836;6.362;2023-05-19T22:27:06;7.60;;;3.80;;
51326;SDS011;37412;52.836;6.362;2023-05-19T22:29:52;8.93;;;3.85;;
51326;SDS011;37412;52.836;6.362;2023-05-19T22:32:38;6.65;;;3.70;;
51326;SDS011;37412;52.836;6.362;2023-05-19T22:35:24;7.78;;;3.88;;
51326;SDS011;37412;52.836;6.362;2023-05-19T22:38:10;7.90;;;3.90;;
51326;SDS011;37412;52.836;6.362;2023-05-19T22:40:56;6.72;;;3.90;;
51326;SDS011;37412;52.836;6.362;2023-05-19T22:43:42;8.32;;;3.90;;
51326;SDS011;37412;52.836;6.362;2023-05-19T22:46:28;6.28;;;3.58;;
51326;SDS011;37412;52.836;6.362;2023-05-19T22:49:14;8.48;;;3.88;;
51326;SDS011;37412;52.836;6.362;2023-05-19T22:52:00;7.37;;;3.70;;
51326;SDS011;37412;52.836;6.362;2023-05-19T22:54:46;7.03;;;3.97;;
51326;SDS011;37412;52.836;6.362;2023-05-19T22:57:32;6.30;;;3.75;;
51326;SDS011;37412;52.836;6.362;2023-05-19T23:00:18;9.10;;;3.50;;
51326;SDS011;37412;52.836;6.362;2023-05-19T23:03:05;7.60;;;4.10;;
51326;SDS011;37412;52.836;6.362;2023-05-19T23:05:51;8.93;;;3.90;;
51326;SDS011;37412;52.836;6.362;2023-05-19T23:08:37;8.73;;;4.28;;
51326;SDS011;37412;52.836;6.362;2023-05-19T23:11:23;7.75;;;3.83;;
51326;SDS011;37412;52.836;6.362;2023-05-19T23:14:09;8.30;;;3.97;;
51326;SDS011;37412;52.836;6.362;2023-05-19T23:16:55;6.15;;;3.55;;
51326;SDS011;37412;52.836;6.362;2023-05-19T23:19:41;9.02;;;3.95;;
51326;SDS011;37412;52.836;6.362;2023-05-19T23:22:27;8.25;;;3.75;;
51326;SDS011;37412;52.836;6.362;2023-05-19T23:25:12;10.10;;;4.40;;
51326;SDS011;37412;52.836;6.362;2023-05-19T23:28:04;7.90;;;3.88;;
51326;SDS011;37412;52.836;6.362;2023-05-19T23:30:54;8.05;;;4.05;;
51326;SDS011;37412;52.836;6.362;2023-05-19T23:33:40;8.20;;;4.03;;
51326;SDS011;37412;52.836;6.362;2023-05-19T23:36:26;7.47;;;4.30;;
51326;SDS011;37412;52.836;6.362;2023-05-19T23:39:12;8.73;;;4.05;;
51326;SDS011;37412;52.836;6.362;2023-05-19T23:41:58;9.75;;;4.47;;
51326;SDS011;37412;52.836;6.362;2023-05-19T23:44:44;6.65;;;3.85;;
51326;SDS011;37412;52.836;6.362;2023-05-19T23:47:30;9.03;;;4.30;;
51326;SDS011;37412;52.836;6.362;2023-05-19T23:50:15;7.25;;;3.90;;
51326;SDS011;37412;52.836;6.362;2023-05-19T23:53:04;7.07;;;4.03;;
51326;SDS011;37412;52.836;6.362;2023-05-19T23:55:51;8.57;;;4.30;;
51326;SDS011;37412;52.836;6.362;2023-05-19T23:58:36;7.93;;;4.03;;
